createdAt,value
2022-10-24T00:00:54.122Z,100382.75
2022-10-24T00:03:56.882Z,100366.25
2022-10-24T00:06:59.395Z,100378.25
2022-10-24T00:10:03.206Z,100368.19
2022-10-24T00:13:06.760Z,100372.22
2022-10-24T00:16:09.794Z,100363.88
2022-10-24T00:19:12.307Z,100370.03
2022-10-24T00:22:14.770Z,100362.66
2022-10-24T00:25:18.626Z,100362.53
2022-10-24T00:28:21.141Z,100359.91
2022-10-24T00:31:23.652Z,100369.25
2022-10-24T00:34:26.179Z,100368.88
2022-10-24T00:37:28.669Z,100375.53
2022-10-24T00:40:32.479Z,100362.06
2022-10-24T00:43:35.090Z,100361.72
2022-10-24T00:46:37.588Z,100345.28
2022-10-24T00:49:45.950Z,100346.81
2022-10-24T00:52:48.877Z,100329.59
2022-10-24T00:55:55.982Z,100332.94
2022-10-24T00:59:00.492Z,100340.22
2022-10-24T01:02:03.136Z,100335.97
2022-10-24T01:05:07.539Z,100338.78
2022-10-24T01:08:22.378Z,100335.31
2022-10-24T01:11:43.417Z,100341.19
2022-10-24T01:14:54.037Z,100336.31
2022-10-24T01:18:02.299Z,100332.41
2022-10-24T01:21:14.649Z,100339.38
2022-10-24T01:24:33.107Z,100329.25
2022-10-24T01:27:58.844Z,100327.69
2022-10-24T01:31:09.281Z,100315.53
2022-10-24T01:34:18.401Z,100318.16
2022-10-24T01:37:24.946Z,100315.38
2022-10-24T01:40:34.097Z,100316.16
2022-10-24T01:43:41.183Z,100307.69
2022-10-24T01:46:49.594Z,100312.16
2022-10-24T01:49:57.589Z,100312.34
2022-10-24T01:53:00.617Z,100315.56
2022-10-24T01:56:03.562Z,100314.47
2022-10-24T01:59:07.358Z,100306.22
2022-10-24T02:02:16.846Z,100314.59
2022-10-24T02:05:24.106Z,100306.13
2022-10-24T02:08:31.724Z,100316.16
2022-10-24T02:11:35.754Z,100309.88
2022-10-24T02:14:44.101Z,100300.59
2022-10-24T02:17:48.147Z,100294.28
2022-10-24T02:20:55.678Z,100298.78
2022-10-24T02:24:03.610Z,100295.47
2022-10-24T02:27:10.740Z,100289.16
2022-10-24T02:30:15.552Z,100275.81
2022-10-24T02:33:19.737Z,100280.16
2022-10-24T02:36:28.768Z,100271.28
2022-10-24T02:39:32.799Z,100274.06
2022-10-24T02:42:36.436Z,100267.84
2022-10-24T02:45:39.923Z,100274.25
2022-10-24T02:48:48.205Z,100266.00
2022-10-24T02:51:51.932Z,100256.72
2022-10-24T02:54:54.401Z,100250.50
2022-10-24T02:57:56.902Z,100253.59
2022-10-24T03:00:59.497Z,100263.13
2022-10-24T03:04:03.471Z,100264.56
2022-10-24T03:07:07.335Z,100259.38
2022-10-24T03:10:10.169Z,100257.13
2022-10-24T03:13:12.642Z,100251.59
2022-10-24T03:16:15.153Z,100247.22
2022-10-24T03:19:18.989Z,100239.84
2022-10-24T03:22:21.515Z,100236.81
2022-10-24T03:25:24.000Z,100236.56
2022-10-24T03:28:26.948Z,100239.81
2022-10-24T03:31:30.699Z,100222.53
2022-10-24T03:34:34.716Z,100218.06
2022-10-24T03:37:37.230Z,100213.50
2022-10-24T03:40:39.813Z,100223.59
2022-10-24T03:43:42.374Z,100228.28
2022-10-24T03:46:44.859Z,100238.00
2022-10-24T03:49:48.708Z,100234.13
2022-10-24T03:52:51.198Z,100235.91
2022-10-24T03:55:53.674Z,100223.28
2022-10-24T03:58:56.146Z,100228.22
2022-10-24T04:01:59.718Z,100224.09
2022-10-24T04:05:03.654Z,100223.50
2022-10-24T04:08:06.850Z,100216.56
2022-10-24T04:11:09.815Z,100211.22
2022-10-24T04:14:12.306Z,100205.22
2022-10-24T04:17:14.768Z,100210.22
2022-10-24T04:20:20.422Z,100218.16
2022-10-24T04:23:22.912Z,100205.59
2022-10-24T04:26:25.421Z,100199.09
2022-10-24T04:29:27.905Z,100201.22
2022-10-24T04:32:30.412Z,100199.03
2022-10-24T04:35:34.222Z,100196.06
2022-10-24T04:38:36.865Z,100202.75
2022-10-24T04:41:39.380Z,100209.78
2022-10-24T04:44:41.887Z,100208.63
2022-10-24T04:47:44.584Z,100203.03
2022-10-24T04:50:49.472Z,100209.56
2022-10-24T04:53:52.399Z,100211.22
2022-10-24T04:56:54.958Z,100204.38
2022-10-24T04:59:57.469Z,100219.81
2022-10-24T05:02:59.988Z,100215.63
2022-10-24T05:06:03.946Z,100215.34
2022-10-24T05:09:06.805Z,100221.81
2022-10-24T05:12:09.376Z,100211.22
2022-10-24T05:15:14.194Z,100208.88
2022-10-24T05:18:16.685Z,100213.41
2022-10-24T05:21:20.494Z,100204.69
2022-10-24T05:24:23.079Z,100217.34
2022-10-24T05:27:25.702Z,100210.22
2022-10-24T05:30:28.372Z,100204.19
2022-10-24T05:33:30.870Z,100209.63
2022-10-24T05:36:34.957Z,100203.63
2022-10-24T05:39:37.453Z,100203.13
2022-10-24T05:42:40.039Z,100202.00
2022-10-24T05:45:42.667Z,100213.63
2022-10-24T05:48:45.193Z,100216.41
2022-10-24T05:51:49.243Z,100218.13
2022-10-24T05:55:02.777Z,100218.56
2022-10-24T05:58:08.762Z,100214.09
2022-10-24T06:01:11.289Z,100217.81
2022-10-24T06:04:14.266Z,100217.81
2022-10-24T06:07:18.653Z,100209.97
2022-10-24T06:10:21.273Z,100209.41
2022-10-24T06:13:23.787Z,100207.25
2022-10-24T06:16:27.539Z,100201.72
2022-10-24T06:19:30.018Z,100209.38
2022-10-24T06:22:33.878Z,100217.41
2022-10-24T06:25:36.748Z,100214.25
2022-10-24T06:28:39.779Z,100216.81
2022-10-24T06:31:42.255Z,100217.28
2022-10-24T06:34:44.759Z,100198.72
2022-10-24T06:37:48.788Z,100203.94
2022-10-24T06:40:51.329Z,100207.44
2022-10-24T06:43:56.269Z,100207.56
2022-10-24T06:46:58.761Z,100210.53
2022-10-24T06:50:01.289Z,100207.09
2022-10-24T06:53:05.127Z,100206.00
2022-10-24T06:56:08.857Z,100210.19
2022-10-24T06:59:12.452Z,100215.28
2022-10-24T07:02:16.981Z,100214.00
2022-10-24T07:05:19.605Z,100226.34
2022-10-24T07:08:23.426Z,100235.25
2022-10-24T07:11:26.572Z,100227.66
2022-10-24T07:14:29.061Z,100236.41
2022-10-24T07:17:31.567Z,100240.13
2022-10-24T07:20:34.080Z,100250.50
2022-10-24T07:23:37.981Z,100246.84
2022-10-24T07:26:40.698Z,100254.88
2022-10-24T07:29:43.162Z,100254.38
2022-10-24T07:32:45.945Z,100248.56
2022-10-24T07:35:48.650Z,100260.03
2022-10-24T07:38:54.232Z,100246.38
2022-10-24T07:41:56.726Z,100260.56
2022-10-24T07:44:59.223Z,100256.53
2022-10-24T07:48:05.597Z,100264.53
2022-10-24T07:51:09.390Z,100263.63
2022-10-24T07:54:13.303Z,100260.31
2022-10-24T07:57:15.811Z,100267.56
2022-10-24T08:00:18.775Z,100261.75
2022-10-24T08:03:21.258Z,100277.13
2022-10-24T08:06:26.345Z,100270.72
2022-10-24T08:09:30.262Z,100272.00
2022-10-24T08:12:32.838Z,100265.16
2022-10-24T08:15:35.305Z,100261.22
2022-10-24T08:18:39.982Z,100259.09
2022-10-24T08:21:42.682Z,100252.38
2022-10-24T08:24:46.938Z,100249.81
2022-10-24T08:27:49.483Z,100260.06
2022-10-24T08:30:58.796Z,100253.53
2022-10-24T08:34:01.293Z,100248.94
2022-10-24T08:37:04.580Z,100257.22
2022-10-24T08:40:15.486Z,100262.97
2022-10-24T08:43:20.058Z,100257.06
2022-10-24T08:46:38.012Z,100252.81
2022-10-24T08:49:47.936Z,100255.56
2022-10-24T08:53:01.684Z,100248.94
2022-10-24T08:56:07.446Z,100235.63
2022-10-24T08:59:12.917Z,100259.66
2022-10-24T09:02:20.242Z,100236.16
2022-10-24T09:05:26.780Z,100245.97
2022-10-24T09:08:34.926Z,100244.44
2022-10-24T09:11:47.271Z,100247.59
2022-10-24T09:14:58.559Z,100250.22
2022-10-24T09:18:01.134Z,100255.44
2022-10-24T09:21:06.239Z,100242.94
2022-10-24T09:24:18.341Z,100255.03
2022-10-24T09:27:25.364Z,100254.56
2022-10-24T09:30:33.035Z,100242.88
2022-10-24T09:33:40.808Z,100242.78
2022-10-24T09:36:43.673Z,100243.94
2022-10-24T09:39:46.156Z,100239.41
2022-10-24T09:42:55.013Z,100237.84
2022-10-24T09:46:03.461Z,100245.66
2022-10-24T09:49:20.050Z,100243.91
2022-10-24T09:52:25.404Z,100248.31
2022-10-24T09:55:31.080Z,100253.66
2022-10-24T09:58:35.564Z,100237.34
2022-10-24T10:01:38.191Z,100236.38
2022-10-24T10:04:41.592Z,100247.88
2022-10-24T10:07:48.348Z,100245.16
2022-10-24T10:11:03.095Z,100243.13
2022-10-24T10:14:25.364Z,100249.13
2022-10-24T10:17:31.007Z,100241.06
2022-10-24T10:20:39.062Z,100245.59
2022-10-24T10:23:43.858Z,100243.59
2022-10-24T10:26:47.229Z,100239.50
2022-10-24T10:29:51.086Z,100237.50
2022-10-24T10:33:12.176Z,100244.47
2022-10-24T10:36:20.708Z,100240.28
2022-10-24T10:39:44.351Z,100236.03
2022-10-24T10:43:02.899Z,100234.28
2022-10-24T10:46:17.514Z,100245.13
2022-10-24T10:49:28.727Z,100232.41
2022-10-24T10:52:33.246Z,100222.56
2022-10-24T10:55:40.344Z,100236.84
2022-10-24T10:58:50.963Z,100237.88
2022-10-24T11:02:01.199Z,100232.44
2022-10-24T11:05:17.809Z,100232.56
2022-10-24T11:08:45.450Z,100238.47
2022-10-24T11:11:53.128Z,100243.47
2022-10-24T11:15:01.645Z,100245.69
2022-10-24T11:18:12.691Z,100237.81
2022-10-24T11:21:17.834Z,100249.66
2022-10-24T11:24:24.013Z,100247.75
2022-10-24T11:27:32.138Z,100240.22
2022-10-24T11:30:47.251Z,100246.72
2022-10-24T11:33:58.721Z,100244.44
2022-10-24T11:37:06.932Z,100243.44
2022-10-24T11:40:13.516Z,100262.16
2022-10-24T11:43:23.132Z,100240.44
2022-10-24T11:46:30.140Z,100242.47
2022-10-24T11:49:37.905Z,100243.28
2022-10-24T11:52:44.216Z,100241.78
2022-10-24T11:55:53.503Z,100242.09
2022-10-24T11:58:59.886Z,100231.41
2022-10-24T12:02:34.037Z,100237.03
2022-10-24T12:06:10.097Z,100231.44
2022-10-24T12:09:30.676Z,100237.78
2022-10-24T12:12:56.864Z,100231.00
2022-10-24T12:16:12.208Z,100229.19
2022-10-24T12:19:17.407Z,100238.56
2022-10-24T12:25:37.336Z,100245.78
2022-10-24T12:28:41.532Z,100246.13
2022-10-24T12:31:44.130Z,100253.72
2022-10-24T12:35:12.275Z,100248.06
2022-10-24T12:38:50.297Z,100249.91
2022-10-24T12:41:55.818Z,100247.63
2022-10-24T12:45:28.797Z,100248.22
2022-10-24T12:48:36.846Z,100241.28
2022-10-24T12:51:40.401Z,100233.34
2022-10-24T12:54:44.821Z,100249.06
2022-10-24T12:57:48.817Z,100237.63
2022-10-24T13:00:55.599Z,100246.66
2022-10-24T13:04:32.480Z,100243.38
2022-10-24T13:08:08.890Z,100242.06
2022-10-24T13:11:30.307Z,100232.56
2022-10-24T13:14:50.975Z,100226.56
2022-10-24T13:18:09.003Z,100218.75
2022-10-24T13:21:21.963Z,100229.25
2022-10-24T13:24:34.652Z,100237.84
2022-10-24T13:27:37.184Z,100242.44
2022-10-24T13:30:42.095Z,100245.91
2022-10-24T13:33:47.491Z,100235.41
2022-10-24T13:36:54.525Z,100241.63
2022-10-24T13:40:03.957Z,100253.94
2022-10-24T13:43:14.770Z,100242.63
2022-10-24T13:46:26.283Z,100255.56
2022-10-24T13:49:32.097Z,100261.91
2022-10-24T13:52:49.066Z,100252.03
2022-10-24T13:55:52.280Z,100254.00
2022-10-24T13:58:54.805Z,100259.09
2022-10-24T14:02:00.626Z,100272.16
2022-10-24T14:05:05.324Z,100263.75
2022-10-24T14:08:09.519Z,100270.94
2022-10-24T14:11:19.703Z,100264.72
2022-10-24T14:14:30.491Z,100277.66
2022-10-24T14:17:35.806Z,100277.03
2022-10-24T14:20:39.638Z,100272.28
2022-10-24T14:23:42.446Z,100265.31
2022-10-24T14:26:46.491Z,100275.19
2022-10-24T14:29:55.240Z,100277.16
2022-10-24T14:33:21.032Z,100275.91
2022-10-24T14:36:26.112Z,100286.06
2022-10-24T14:39:29.014Z,100280.84
2022-10-24T14:42:32.373Z,100278.59
2022-10-24T14:45:34.901Z,100279.84
2022-10-24T14:48:41.015Z,100275.69
2022-10-24T14:51:43.670Z,100284.72
2022-10-24T14:54:55.934Z,100280.56
2022-10-24T14:57:58.437Z,100287.63
2022-10-24T15:01:01.636Z,100281.53
2022-10-24T15:04:07.121Z,100296.03
2022-10-24T15:07:27.632Z,100287.22
2022-10-24T15:10:37.848Z,100293.72
2022-10-24T15:13:50.980Z,100297.84
2022-10-24T15:20:03.743Z,100293.59
2022-10-24T15:23:08.633Z,100299.22
2022-10-24T15:26:13.308Z,100304.06
2022-10-24T15:29:20.742Z,100307.75
2022-10-24T15:32:24.122Z,100298.88
2022-10-24T15:35:28.660Z,100294.75
2022-10-24T15:38:31.235Z,100303.63
2022-10-24T15:41:34.173Z,100313.41
2022-10-24T15:44:36.711Z,100305.88
2022-10-24T15:47:39.256Z,100315.34
2022-10-24T15:50:47.188Z,100319.28
2022-10-24T15:53:50.655Z,100320.94
2022-10-24T15:56:53.720Z,100319.31
2022-10-24T15:59:57.610Z,100324.53
2022-10-24T16:03:04.328Z,100327.94
2022-10-24T16:06:08.698Z,100337.19
2022-10-24T16:09:15.146Z,100345.25
2022-10-24T16:12:17.618Z,100339.78
2022-10-24T16:15:22.665Z,100344.47
2022-10-24T16:18:25.223Z,100342.53
2022-10-24T16:21:29.016Z,100351.19
2022-10-24T16:24:31.498Z,100344.31
2022-10-24T16:27:33.996Z,100345.06
2022-10-24T16:30:39.078Z,100348.50
2022-10-24T16:33:41.554Z,100354.94
2022-10-24T16:36:45.468Z,100351.63
2022-10-24T16:39:47.941Z,100361.06
2022-10-24T16:42:50.846Z,100362.03
2022-10-24T16:46:00.216Z,100367.19
2022-10-24T16:49:02.780Z,100359.91
2022-10-24T16:52:06.929Z,100366.88
2022-10-24T16:55:12.065Z,100369.63
2022-10-24T16:58:14.579Z,100358.91
2022-10-24T17:01:17.609Z,100374.44
2022-10-24T17:04:20.146Z,100376.38
2022-10-24T17:07:23.980Z,100379.06
2022-10-24T17:10:26.533Z,100381.41
2022-10-24T17:13:29.846Z,100382.47
2022-10-24T17:16:32.412Z,100392.97
2022-10-24T17:19:36.294Z,100391.25
2022-10-24T17:22:42.770Z,100395.53
2022-10-24T17:25:46.543Z,100413.53
2022-10-24T17:28:49.234Z,100411.81
2022-10-24T17:31:51.908Z,100409.56
2022-10-24T17:34:55.312Z,100418.88
2022-10-24T17:38:08.523Z,100417.38
2022-10-24T17:41:20.404Z,100412.66
2022-10-24T17:44:23.748Z,100415.00
2022-10-24T17:47:26.446Z,100413.00
2022-10-24T17:50:29.055Z,100408.19
2022-10-24T17:53:32.892Z,100418.97
2022-10-24T17:56:35.738Z,100416.81
2022-10-24T17:59:38.215Z,100408.25
2022-10-24T18:02:45.627Z,100417.00
2022-10-24T18:05:48.238Z,100416.94
2022-10-24T18:08:54.979Z,100426.13
2022-10-24T18:11:59.123Z,100433.75
2022-10-24T18:15:01.726Z,100427.41
2022-10-24T18:18:04.517Z,100420.22
2022-10-24T18:21:08.702Z,100427.22
2022-10-24T18:24:12.598Z,100430.94
2022-10-24T18:27:15.113Z,100435.53
2022-10-24T18:30:17.724Z,100432.72
2022-10-24T18:33:20.244Z,100421.84
2022-10-24T18:36:25.272Z,100440.88
2022-10-24T18:39:30.094Z,100435.28
2022-10-24T18:42:38.156Z,100447.72
2022-10-24T18:45:41.459Z,100441.88
2022-10-24T18:48:44.612Z,100449.88
2022-10-24T18:51:52.997Z,100449.56
2022-10-24T18:55:03.896Z,100446.88
2022-10-24T18:58:13.617Z,100448.88
2022-10-24T19:01:27.161Z,100441.41
2022-10-24T19:04:30.061Z,100448.19
2022-10-24T19:07:32.786Z,100452.13
2022-10-24T19:10:36.833Z,100451.56
2022-10-24T19:13:39.417Z,100453.41
2022-10-24T19:16:44.326Z,100445.34
2022-10-24T19:19:46.797Z,100449.84
2022-10-24T19:22:49.621Z,100452.22
2022-10-24T19:25:53.572Z,100456.41
2022-10-24T19:28:56.079Z,100452.41
2022-10-24T19:31:58.952Z,100458.13
2022-10-24T19:35:01.894Z,100458.06
2022-10-24T19:38:04.373Z,100460.13
2022-10-24T19:41:11.221Z,100459.00
2022-10-24T19:44:15.583Z,100449.03
2022-10-24T19:47:18.078Z,100455.66
2022-10-24T19:50:20.577Z,100461.94
2022-10-24T19:53:23.075Z,100462.19
2022-10-24T19:56:28.967Z,100464.88
2022-10-24T19:59:33.896Z,100456.69
2022-10-24T20:02:36.417Z,100467.66
2022-10-24T20:05:38.910Z,100464.50
2022-10-24T20:08:41.621Z,100471.56
2022-10-24T20:11:45.564Z,100462.66
2022-10-24T20:14:48.056Z,100472.31
2022-10-24T20:17:50.533Z,100479.38
2022-10-24T20:20:53.379Z,100490.13
2022-10-24T20:23:55.898Z,100490.66
2022-10-24T20:26:59.888Z,100492.78
2022-10-24T20:30:02.666Z,100496.13
2022-10-24T20:33:05.481Z,100499.25
2022-10-24T20:36:08.870Z,100505.09
2022-10-24T20:39:13.456Z,100511.00
2022-10-24T20:42:18.610Z,100508.06
2022-10-24T20:45:23.017Z,100503.69
2022-10-24T20:48:26.073Z,100516.81
2022-10-24T20:51:29.034Z,100516.88
2022-10-24T20:54:31.889Z,100515.53
2022-10-24T20:57:37.975Z,100523.63
2022-10-24T21:03:44.403Z,100516.66
2022-10-24T21:06:46.852Z,100529.28
2022-10-24T21:09:49.988Z,100529.44
2022-10-24T21:12:54.419Z,100528.44
2022-10-24T21:15:57.539Z,100528.56
2022-10-24T21:19:00.455Z,100545.44
2022-10-24T21:22:02.955Z,100552.41
2022-10-24T21:25:06.054Z,100550.03
2022-10-24T21:28:10.036Z,100544.78
2022-10-24T21:31:14.649Z,100548.84
2022-10-24T21:34:17.414Z,100553.06
2022-10-24T21:37:20.046Z,100559.19
2022-10-24T21:40:22.719Z,100558.16
2022-10-24T21:43:26.776Z,100559.78
2022-10-24T21:46:30.040Z,100567.88
2022-10-24T21:49:32.692Z,100565.78
2022-10-24T21:52:35.294Z,100570.47
2022-10-24T21:55:37.762Z,100568.88
2022-10-24T21:58:42.001Z,100564.84
2022-10-24T22:01:46.838Z,100563.75
2022-10-24T22:04:49.430Z,100575.59
2022-10-24T22:07:52.282Z,100581.06
2022-10-24T22:10:59.823Z,100585.53
2022-10-24T22:14:04.274Z,100576.16
2022-10-24T22:17:06.961Z,100578.72
2022-10-24T22:20:10.383Z,100583.06
2022-10-24T22:23:13.053Z,100587.56
2022-10-24T22:26:15.530Z,100587.91
2022-10-24T22:29:21.987Z,100592.91
2022-10-24T22:32:24.911Z,100598.56
2022-10-24T22:35:28.313Z,100597.59
2022-10-24T22:38:32.441Z,100602.19
2022-10-24T22:41:35.388Z,100606.00
2022-10-24T22:44:39.896Z,100600.91
2022-10-24T22:47:52.069Z,100604.81
2022-10-24T22:50:56.807Z,100609.34
2022-10-24T22:53:59.741Z,100609.47
2022-10-24T22:57:02.931Z,100610.97
2022-10-24T23:00:08.699Z,100614.72
2022-10-24T23:03:19.823Z,100616.31
2022-10-24T23:06:28.701Z,100618.00
2022-10-24T23:09:31.756Z,100618.75
2022-10-24T23:12:34.861Z,100615.69
2022-10-24T23:15:39.432Z,100621.47
2022-10-24T23:18:42.478Z,100630.41
2022-10-24T23:21:50.867Z,100628.31
2022-10-24T23:24:54.920Z,100627.66
2022-10-24T23:28:08.040Z,100621.88
2022-10-24T23:31:12.649Z,100623.25
2022-10-24T23:34:16.123Z,100627.00
2022-10-24T23:37:31.202Z,100633.06
2022-10-24T23:40:35.614Z,100636.53
2022-10-24T23:43:38.714Z,100631.03
2022-10-24T23:46:47.660Z,100630.34
2022-10-24T23:49:55.933Z,100628.63
2022-10-24T23:53:18.778Z,100625.22
2022-10-24T23:56:23.257Z,100628.53
2022-10-24T23:59:25.826Z,100637.31
